ENSB/LYR METAR and TAF weather

Enter ICAO airport designator
Station Type Date Time Source
ENSB METAR 2018/10/21 02:50 UTC NOAA

ENSB 210250Z 12018KT 9999 FEW031 SCT079 04/M00 Q0991 RMK WIND 1400FT 12024KT


Station Type Date Time Source
ENSB Decoded METAR 2018/10/21 02:50 UTC NOAA

Svalbard Lufthavn, Norway (ENSB) 78-15N 015-28E 29M
Oct 20, 2018 - 10:50 PM EDT / 2018.10.21 0250 UTC
Wind: from the ESE (120 degrees) at 21 MPH (18 KT):0
Visibility: greater than 7 mile(s):0
Sky conditions: partly cloudy
Temperature: 39 F (4 C)
Dew Point: 32 F (0 C)
Relative Humidity: 75%
Pressure (altimeter): 29.26 in. Hg (0991 hPa)
ob: ENSB 210250Z 12018KT 9999 FEW031 SCT079 04/M00 Q0991 RMK WIND 1400FT 12024KT
cycle: 3

Station Type Date Time Source
ENSB TAF 2018/10/20 18:57 UTC NOAA

TAF ENSB 201700Z 2018/2118 12020KT 9999 -RA FEW020 BKN040
TEMPO 2018/2022 12025G40KT PROB40
TEMPO 2018/2023 2000 RASN BKN006
TEMPO 2106/2112 12025G40KT


Example: see airport list